sensor_id;sensor_type;location;lat;lon;timestamp;P1;durP1;ratioP1;P2;durP2;ratioP2
11558;SDS011;5835;42.930;25.178;2023-09-12T00:01:34;0.50;;;0.50;;
11558;SDS011;5835;42.930;25.178;2023-09-12T00:04:01;1.20;;;0.93;;
11558;SDS011;5835;42.930;25.178;2023-09-12T00:06:28;0.38;;;0.38;;
11558;SDS011;5835;42.930;25.178;2023-09-12T00:08:55;0.43;;;0.43;;
11558;SDS011;5835;42.930;25.178;2023-09-12T00:11:22;0.70;;;0.70;;
11558;SDS011;5835;42.930;25.178;2023-09-12T00:13:51;0.40;;;0.40;;
11558;SDS011;5835;42.930;25.178;2023-09-12T00:16:18;0.50;;;0.50;;
11558;SDS011;5835;42.930;25.178;2023-09-12T00:18:46;0.40;;;0.40;;
11558;SDS011;5835;42.930;25.178;2023-09-12T00:21:12;0.30;;;0.30;;
11558;SDS011;5835;42.930;25.178;2023-09-12T00:23:39;0.50;;;0.50;;
11558;SDS011;5835;42.930;25.178;2023-09-12T00:26:06;0.40;;;0.40;;
11558;SDS011;5835;42.930;25.178;2023-09-12T00:28:33;1.20;;;1.10;;
11558;SDS011;5835;42.930;25.178;2023-09-12T00:31:00;0.60;;;0.60;;
11558;SDS011;5835;42.930;25.178;2023-09-12T00:33:27;0.33;;;0.33;;
11558;SDS011;5835;42.930;25.178;2023-09-12T00:35:54;2.27;;;0.80;;
11558;SDS011;5835;42.930;25.178;2023-09-12T00:38:21;0.60;;;0.60;;
11558;SDS011;5835;42.930;25.178;2023-09-12T00:40:48;0.63;;;0.63;;
11558;SDS011;5835;42.930;25.178;2023-09-12T00:43:16;1.50;;;1.40;;
11558;SDS011;5835;42.930;25.178;2023-09-12T00:45:42;0.40;;;0.40;;
11558;SDS011;5835;42.930;25.178;2023-09-12T00:48:09;0.50;;;0.50;;
11558;SDS011;5835;42.930;25.178;2023-09-12T00:50:38;0.70;;;0.70;;
11558;SDS011;5835;42.930;25.178;2023-09-12T00:53:07;0.40;;;0.40;;
11558;SDS011;5835;42.930;25.178;2023-09-12T00:55:34;0.40;;;0.40;;
11558;SDS011;5835;42.930;25.178;2023-09-12T00:58:05;0.40;;;0.40;;
11558;SDS011;5835;42.930;25.178;2023-09-12T01:00:33;0.40;;;0.40;;
11558;SDS011;5835;42.930;25.178;2023-09-12T01:03:02;0.90;;;0.87;;
11558;SDS011;5835;42.930;25.178;2023-09-12T01:05:30;0.40;;;0.40;;
11558;SDS011;5835;42.930;25.178;2023-09-12T01:07:59;0.40;;;0.40;;
11558;SDS011;5835;42.930;25.178;2023-09-12T01:10:27;0.63;;;0.63;;
11558;SDS011;5835;42.930;25.178;2023-09-12T01:12:54;0.53;;;0.53;;
11558;SDS011;5835;42.930;25.178;2023-09-12T01:15:21;0.50;;;0.50;;
11558;SDS011;5835;42.930;25.178;2023-09-12T01:17:49;0.40;;;0.40;;
11558;SDS011;5835;42.930;25.178;2023-09-12T01:20:17;0.40;;;0.40;;
11558;SDS011;5835;42.930;25.178;2023-09-12T01:22:55;0.40;;;0.40;;
11558;SDS011;5835;42.930;25.178;2023-09-12T01:28:44;0.40;;;0.40;;
11558;SDS011;5835;42.930;25.178;2023-09-12T01:31:12;0.60;;;0.60;;
11558;SDS011;5835;42.930;25.178;2023-09-12T01:33:42;0.40;;;0.40;;
11558;SDS011;5835;42.930;25.178;2023-09-12T01:36:09;0.60;;;0.60;;
11558;SDS011;5835;42.930;25.178;2023-09-12T01:38:36;0.50;;;0.50;;
11558;SDS011;5835;42.930;25.178;2023-09-12T01:41:03;0.50;;;0.50;;
11558;SDS011;5835;42.930;25.178;2023-09-12T01:43:30;0.40;;;0.40;;
11558;SDS011;5835;42.930;25.178;2023-09-12T01:45:59;0.40;;;0.40;;
11558;SDS011;5835;42.930;25.178;2023-09-12T01:48:30;0.70;;;0.70;;
11558;SDS011;5835;42.930;25.178;2023-09-12T01:51:00;0.60;;;0.60;;
11558;SDS011;5835;42.930;25.178;2023-09-12T01:53:28;0.73;;;0.73;;
11558;SDS011;5835;42.930;25.178;2023-09-12T01:55:55;0.50;;;0.50;;
11558;SDS011;5835;42.930;25.178;2023-09-12T01:58:25;0.40;;;0.40;;
11558;SDS011;5835;42.930;25.178;2023-09-12T02:00:52;0.40;;;0.40;;
11558;SDS011;5835;42.930;25.178;2023-09-12T02:03:20;0.40;;;0.40;;
11558;SDS011;5835;42.930;25.178;2023-09-12T02:05:47;0.50;;;0.50;;
11558;SDS011;5835;42.930;25.178;2023-09-12T02:08:14;0.30;;;0.30;;
11558;SDS011;5835;42.930;25.178;2023-09-12T02:10:41;0.50;;;0.50;;
11558;SDS011;5835;42.930;25.178;2023-09-12T02:13:08;0.60;;;0.60;;
11558;SDS011;5835;42.930;25.178;2023-09-12T02:15:35;0.60;;;0.60;;
11558;SDS011;5835;42.930;25.178;2023-09-12T02:18:03;0.50;;;0.50;;
11558;SDS011;5835;42.930;25.178;2023-09-12T02:20:31;0.40;;;0.40;;
11558;SDS011;5835;42.930;25.178;2023-09-12T02:22:58;0.73;;;0.70;;
11558;SDS011;5835;42.930;25.178;2023-09-12T02:25:25;0.80;;;0.80;;
11558;SDS011;5835;42.930;25.178;2023-09-12T02:27:53;0.40;;;0.40;;
11558;SDS011;5835;42.930;25.178;2023-09-12T02:30:20;0.50;;;0.50;;
11558;SDS011;5835;42.930;25.178;2023-09-12T02:32:47;0.53;;;0.53;;
11558;SDS011;5835;42.930;25.178;2023-09-12T02:35:16;0.70;;;0.70;;
11558;SDS011;5835;42.930;25.178;2023-09-12T02:37:46;1.33;;;1.33;;
11558;SDS011;5835;42.930;25.178;2023-09-12T02:40:13;1.40;;;1.40;;
11558;SDS011;5835;42.930;25.178;2023-09-12T02:42:40;0.50;;;0.50;;
11558;SDS011;5835;42.930;25.178;2023-09-12T02:45:08;0.50;;;0.50;;
11558;SDS011;5835;42.930;25.178;2023-09-12T02:47:35;0.60;;;0.60;;
11558;SDS011;5835;42.930;25.178;2023-09-12T02:50:03;0.40;;;0.40;;
11558;SDS011;5835;42.930;25.178;2023-09-12T02:52:30;0.40;;;0.40;;
11558;SDS011;5835;42.930;25.178;2023-09-12T02:54:58;0.40;;;0.40;;
11558;SDS011;5835;42.930;25.178;2023-09-12T02:57:25;0.63;;;0.63;;
11558;SDS011;5835;42.930;25.178;2023-09-12T02:59:52;0.40;;;0.40;;
11558;SDS011;5835;42.930;25.178;2023-09-12T03:14:07;0.87;;;0.87;;
11558;SDS011;5835;42.930;25.178;2023-09-12T03:16:34;0.70;;;0.70;;
11558;SDS011;5835;42.930;25.178;2023-09-12T03:19:02;0.87;;;0.87;;
11558;SDS011;5835;42.930;25.178;2023-09-12T03:21:30;2.27;;;1.00;;
11558;SDS011;5835;42.930;25.178;2023-09-12T03:23:57;0.70;;;0.70;;
11558;SDS011;5835;42.930;25.178;2023-09-12T03:26:24;0.63;;;0.63;;
11558;SDS011;5835;42.930;25.178;2023-09-12T03:28:51;0.40;;;0.40;;
11558;SDS011;5835;42.930;25.178;2023-09-12T03:31:19;0.73;;;0.73;;
11558;SDS011;5835;42.930;25.178;2023-09-12T03:33:46;0.70;;;0.70;;
11558;SDS011;5835;42.930;25.178;2023-09-12T03:36:15;0.60;;;0.60;;
11558;SDS011;5835;42.930;25.178;2023-09-12T03:38:43;0.47;;;0.47;;
11558;SDS011;5835;42.930;25.178;2023-09-12T03:41:10;0.43;;;0.43;;
11558;SDS011;5835;42.930;25.178;2023-09-12T03:43:37;0.77;;;0.70;;
11558;SDS011;5835;42.930;25.178;2023-09-12T03:46:04;0.53;;;0.53;;
11558;SDS011;5835;42.930;25.178;2023-09-12T03:48:32;0.87;;;0.87;;
11558;SDS011;5835;42.930;25.178;2023-09-12T03:51:01;0.70;;;0.70;;
11558;SDS011;5835;42.930;25.178;2023-09-12T03:53:29;0.73;;;0.73;;
11558;SDS011;5835;42.930;25.178;2023-09-12T03:55:57;0.90;;;0.90;;
11558;SDS011;5835;42.930;25.178;2023-09-12T03:58:25;0.50;;;0.50;;
11558;SDS011;5835;42.930;25.178;2023-09-12T04:00:52;0.70;;;0.70;;
11558;SDS011;5835;42.930;25.178;2023-09-12T04:03:20;0.70;;;0.70;;
11558;SDS011;5835;42.930;25.178;2023-09-12T04:05:48;0.83;;;0.80;;
11558;SDS011;5835;42.930;25.178;2023-09-12T04:08:15;0.50;;;0.50;;
11558;SDS011;5835;42.930;25.178;2023-09-12T04:10:43;0.43;;;0.43;;
11558;SDS011;5835;42.930;25.178;2023-09-12T04:13:10;1.17;;;1.07;;
11558;SDS011;5835;42.930;25.178;2023-09-12T04:15:37;0.70;;;0.70;;
11558;SDS011;5835;42.930;25.178;2023-09-12T04:18:05;0.50;;;0.50;;
11558;SDS011;5835;42.930;25.178;2023-09-12T04:20:32;0.67;;;0.67;;
11558;SDS011;5835;42.930;25.178;2023-09-12T04:23:01;0.53;;;0.53;;
11558;SDS011;5835;42.930;25.178;2023-09-12T04:25:28;1.40;;;1.33;;
11558;SDS011;5835;42.930;25.178;2023-09-12T04:27:55;0.40;;;0.40;;
11558;SDS011;5835;42.930;25.178;2023-09-12T04:30:23;0.40;;;0.40;;
11558;SDS011;5835;42.930;25.178;2023-09-12T04:32:50;0.40;;;0.40;;
11558;SDS011;5835;42.930;25.178;2023-09-12T04:35:17;0.50;;;0.50;;
11558;SDS011;5835;42.930;25.178;2023-09-12T04:37:46;0.50;;;0.50;;
11558;SDS011;5835;42.930;25.178;2023-09-12T04:40:14;0.90;;;0.90;;
11558;SDS011;5835;42.930;25.178;2023-09-12T04:42:43;1.60;;;1.13;;
11558;SDS011;5835;42.930;25.178;2023-09-12T04:45:10;0.70;;;0.70;;
11558;SDS011;5835;42.930;25.178;2023-09-12T04:47:37;0.60;;;0.60;;
11558;SDS011;5835;42.930;25.178;2023-09-12T04:50:04;0.57;;;0.57;;
11558;SDS011;5835;42.930;25.178;2023-09-12T04:52:32;0.60;;;0.60;;
11558;SDS011;5835;42.930;25.178;2023-09-12T04:54:59;0.40;;;0.40;;
11558;SDS011;5835;42.930;25.178;2023-09-12T04:57:27;0.57;;;0.57;;
11558;SDS011;5835;42.930;25.178;2023-09-12T04:59:56;0.87;;;0.87;;
11558;SDS011;5835;42.930;25.178;2023-09-12T05:02:23;0.80;;;0.80;;
11558;SDS011;5835;42.930;25.178;2023-09-12T05:04:50;0.80;;;0.80;;
11558;SDS011;5835;42.930;25.178;2023-09-12T05:07:18;0.50;;;0.50;;
11558;SDS011;5835;42.930;25.178;2023-09-12T05:09:45;0.40;;;0.40;;
11558;SDS011;5835;42.930;25.178;2023-09-12T05:12:12;0.40;;;0.40;;
11558;SDS011;5835;42.930;25.178;2023-09-12T05:14:40;0.40;;;0.40;;
11558;SDS011;5835;42.930;25.178;2023-09-12T05:17:07;0.40;;;0.40;;
11558;SDS011;5835;42.930;25.178;2023-09-12T05:19:34;0.30;;;0.30;;
11558;SDS011;5835;42.930;25.178;2023-09-12T05:22:01;2.53;;;1.53;;
11558;SDS011;5835;42.930;25.178;2023-09-12T05:24:28;0.30;;;0.30;;
11558;SDS011;5835;42.930;25.178;2023-09-12T05:26:55;0.63;;;0.63;;
11558;SDS011;5835;42.930;25.178;2023-09-12T05:29:22;0.80;;;0.80;;
11558;SDS011;5835;42.930;25.178;2023-09-12T05:31:50;0.40;;;0.40;;
11558;SDS011;5835;42.930;25.178;2023-09-12T05:34:17;0.50;;;0.50;;
11558;SDS011;5835;42.930;25.178;2023-09-12T05:36:44;0.40;;;0.40;;
11558;SDS011;5835;42.930;25.178;2023-09-12T05:39:11;0.30;;;0.30;;
11558;SDS011;5835;42.930;25.178;2023-09-12T05:41:39;0.60;;;0.60;;
11558;SDS011;5835;42.930;25.178;2023-09-12T05:44:06;0.30;;;0.30;;
11558;SDS011;5835;42.930;25.178;2023-09-12T05:46:33;0.40;;;0.40;;
11558;SDS011;5835;42.930;25.178;2023-09-12T05:49:01;0.32;;;0.32;;
11558;SDS011;5835;42.930;25.178;2023-09-12T05:51:29;0.60;;;0.60;;
11558;SDS011;5835;42.930;25.178;2023-09-12T05:53:59;0.60;;;0.60;;
11558;SDS011;5835;42.930;25.178;2023-09-12T05:56:26;1.55;;;0.85;;
11558;SDS011;5835;42.930;25.178;2023-09-12T05:58:53;0.57;;;0.57;;
11558;SDS011;5835;42.930;25.178;2023-09-12T06:01:20;0.32;;;0.32;;
11558;SDS011;5835;42.930;25.178;2023-09-12T06:03:47;0.50;;;0.50;;
11558;SDS011;5835;42.930;25.178;2023-09-12T06:06:15;0.98;;;0.65;;
11558;SDS011;5835;42.930;25.178;2023-09-12T06:08:42;0.50;;;0.50;;
11558;SDS011;5835;42.930;25.178;2023-09-12T06:11:10;0.38;;;0.38;;
11558;SDS011;5835;42.930;25.178;2023-09-12T06:13:37;0.60;;;0.60;;
11558;SDS011;5835;42.930;25.178;2023-09-12T06:16:06;0.40;;;0.40;;
11558;SDS011;5835;42.930;25.178;2023-09-12T06:18:33;0.77;;;0.77;;
11558;SDS011;5835;42.930;25.178;2023-09-12T06:21:00;0.50;;;0.50;;
11558;SDS011;5835;42.930;25.178;2023-09-12T06:23:30;0.88;;;0.88;;
11558;SDS011;5835;42.930;25.178;2023-09-12T06:25:57;0.73;;;0.73;;
11558;SDS011;5835;42.930;25.178;2023-09-12T06:28:25;0.50;;;0.50;;
11558;SDS011;5835;42.930;25.178;2023-09-12T06:30:52;0.38;;;0.38;;
11558;SDS011;5835;42.930;25.178;2023-09-12T06:33:19;0.60;;;0.60;;
11558;SDS011;5835;42.930;25.178;2023-09-12T06:35:47;0.43;;;0.43;;
11558;SDS011;5835;42.930;25.178;2023-09-12T06:38:15;0.98;;;0.93;;
11558;SDS011;5835;42.930;25.178;2023-09-12T06:40:43;1.00;;;0.98;;
11558;SDS011;5835;42.930;25.178;2023-09-12T06:43:10;0.70;;;0.70;;
11558;SDS011;5835;42.930;25.178;2023-09-12T06:45:37;0.50;;;0.50;;
11558;SDS011;5835;42.930;25.178;2023-09-12T06:48:04;0.63;;;0.63;;
11558;SDS011;5835;42.930;25.178;2023-09-12T06:50:31;0.93;;;0.93;;
11558;SDS011;5835;42.930;25.178;2023-09-12T06:52:58;1.02;;;0.90;;
11558;SDS011;5835;42.930;25.178;2023-09-12T06:55:25;0.85;;;0.85;;
11558;SDS011;5835;42.930;25.178;2023-09-12T06:57:54;0.63;;;0.52;;
11558;SDS011;5835;42.930;25.178;2023-09-12T07:00:21;0.80;;;0.80;;
11558;SDS011;5835;42.930;25.178;2023-09-12T07:02:49;0.95;;;0.60;;
11558;SDS011;5835;42.930;25.178;2023-09-12T07:05:16;1.00;;;0.75;;
11558;SDS011;5835;42.930;25.178;2023-09-12T07:07:43;0.65;;;0.65;;
11558;SDS011;5835;42.930;25.178;2023-09-12T07:10:10;0.55;;;0.55;;
11558;SDS011;5835;42.930;25.178;2023-09-12T07:12:37;0.52;;;0.52;;
11558;SDS011;5835;42.930;25.178;2023-09-12T07:15:06;0.57;;;0.57;;
11558;SDS011;5835;42.930;25.178;2023-09-12T07:17:33;1.15;;;1.05;;
11558;SDS011;5835;42.930;25.178;2023-09-12T07:20:00;0.75;;;0.75;;
11558;SDS011;5835;42.930;25.178;2023-09-12T07:22:27;1.77;;;1.60;;
11558;SDS011;5835;42.930;25.178;2023-09-12T07:24:54;0.85;;;0.85;;
11558;SDS011;5835;42.930;25.178;2023-09-12T07:27:21;1.70;;;1.17;;
11558;SDS011;5835;42.930;25.178;2023-09-12T07:29:48;0.88;;;0.88;;
11558;SDS011;5835;42.930;25.178;2023-09-12T07:32:16;1.30;;;1.20;;
11558;SDS011;5835;42.930;25.178;2023-09-12T07:34:46;0.80;;;0.80;;
11558;SDS011;5835;42.930;25.178;2023-09-12T07:37:14;1.05;;;1.05;;
11558;SDS011;5835;42.930;25.178;2023-09-12T07:39:41;0.65;;;0.65;;
11558;SDS011;5835;42.930;25.178;2023-09-12T07:42:08;1.33;;;1.33;;
11558;SDS011;5835;42.930;25.178;2023-09-12T07:44:35;0.73;;;0.73;;
11558;SDS011;5835;42.930;25.178;2023-09-12T07:47:02;8.88;;;1.02;;
11558;SDS011;5835;42.930;25.178;2023-09-12T07:49:30;1.48;;;1.38;;
11558;SDS011;5835;42.930;25.178;2023-09-12T07:51:57;1.35;;;0.75;;
11558;SDS011;5835;42.930;25.178;2023-09-12T07:54:24;1.98;;;1.67;;
11558;SDS011;5835;42.930;25.178;2023-09-12T07:56:50;0.77;;;0.77;;
11558;SDS011;5835;42.930;25.178;2023-09-12T07:59:19;1.00;;;0.88;;
11558;SDS011;5835;42.930;25.178;2023-09-12T08:01:46;3.25;;;1.20;;
11558;SDS011;5835;42.930;25.178;2023-09-12T08:04:14;0.80;;;0.77;;
11558;SDS011;5835;42.930;25.178;2023-09-12T08:06:41;2.95;;;1.38;;
11558;SDS011;5835;42.930;25.178;2023-09-12T08:09:08;0.70;;;0.70;;
11558;SDS011;5835;42.930;25.178;2023-09-12T08:11:35;1.08;;;0.98;;
11558;SDS011;5835;42.930;25.178;2023-09-12T08:14:03;3.85;;;1.27;;
11558;SDS011;5835;42.930;25.178;2023-09-12T08:16:30;0.75;;;0.70;;
11558;SDS011;5835;42.930;25.178;2023-09-12T08:18:57;1.85;;;1.27;;
11558;SDS011;5835;42.930;25.178;2023-09-12T08:21:24;0.85;;;0.85;;
11558;SDS011;5835;42.930;25.178;2023-09-12T08:23:51;1.48;;;1.38;;
11558;SDS011;5835;42.930;25.178;2023-09-12T08:26:19;1.50;;;0.93;;
11558;SDS011;5835;42.930;25.178;2023-09-12T08:28:46;1.13;;;1.02;;
11558;SDS011;5835;42.930;25.178;2023-09-12T08:31:12;0.75;;;0.75;;
11558;SDS011;5835;42.930;25.178;2023-09-12T08:33:39;0.90;;;0.90;;
11558;SDS011;5835;42.930;25.178;2023-09-12T08:36:06;1.10;;;1.05;;
11558;SDS011;5835;42.930;25.178;2023-09-12T08:38:33;2.80;;;1.30;;
11558;SDS011;5835;42.930;25.178;2023-09-12T08:41:01;1.05;;;0.95;;
11558;SDS011;5835;42.930;25.178;2023-09-12T08:43:29;0.88;;;0.88;;
11558;SDS011;5835;42.930;25.178;2023-09-12T08:45:56;0.77;;;0.77;;
11558;SDS011;5835;42.930;25.178;2023-09-12T08:48:23;0.90;;;0.90;;
11558;SDS011;5835;42.930;25.178;2023-09-12T08:50:50;2.20;;;1.85;;
11558;SDS011;5835;42.930;25.178;2023-09-12T08:53:20;2.75;;;1.17;;
11558;SDS011;5835;42.930;25.178;2023-09-12T08:55:48;1.48;;;0.88;;
11558;SDS011;5835;42.930;25.178;2023-09-12T08:58:16;1.17;;;1.00;;
11558;SDS011;5835;42.930;25.178;2023-09-12T09:00:43;1.85;;;1.20;;
11558;SDS011;5835;42.930;25.178;2023-09-12T09:03:10;1.52;;;1.13;;
11558;SDS011;5835;42.930;25.178;2023-09-12T09:05:38;1.35;;;1.25;;
11558;SDS011;5835;42.930;25.178;2023-09-12T09:08:07;2.72;;;1.67;;
11558;SDS011;5835;42.930;25.178;2023-09-12T09:10:34;1.30;;;1.20;;
11558;SDS011;5835;42.930;25.178;2023-09-12T09:13:01;1.23;;;1.13;;
11558;SDS011;5835;42.930;25.178;2023-09-12T09:15:32;3.05;;;1.70;;
11558;SDS011;5835;42.930;25.178;2023-09-12T09:18:01;2.17;;;1.98;;
11558;SDS011;5835;42.930;25.178;2023-09-12T09:20:31;1.55;;;1.42;;
11558;SDS011;5835;42.930;25.178;2023-09-12T09:23:01;6.15;;;2.42;;
11558;SDS011;5835;42.930;25.178;2023-09-12T09:25:31;1.40;;;1.25;;
11558;SDS011;5835;42.930;25.178;2023-09-12T09:27:58;1.60;;;1.25;;
11558;SDS011;5835;42.930;25.178;2023-09-12T09:30:39;3.90;;;1.65;;
11558;SDS011;5835;42.930;25.178;2023-09-12T09:33:07;1.25;;;1.20;;
11558;SDS011;5835;42.930;25.178;2023-09-12T09:35:34;1.40;;;1.30;;
11558;SDS011;5835;42.930;25.178;2023-09-12T09:38:02;1.33;;;1.23;;
11558;SDS011;5835;42.930;25.178;2023-09-12T09:40:31;1.30;;;1.20;;
11558;SDS011;5835;42.930;25.178;2023-09-12T09:42:59;1.20;;;1.17;;
11558;SDS011;5835;42.930;25.178;2023-09-12T09:45:27;1.92;;;1.40;;
11558;SDS011;5835;42.930;25.178;2023-09-12T09:47:57;1.30;;;1.20;;
11558;SDS011;5835;42.930;25.178;2023-09-12T09:50:25;1.88;;;1.02;;
11558;SDS011;5835;42.930;25.178;2023-09-12T09:52:54;1.75;;;1.65;;
11558;SDS011;5835;42.930;25.178;2023-09-12T09:55:23;1.95;;;1.50;;
11558;SDS011;5835;42.930;25.178;2023-09-12T09:57:50;4.43;;;1.45;;
11558;SDS011;5835;42.930;25.178;2023-09-12T10:00:19;4.80;;;1.30;;
11558;SDS011;5835;42.930;25.178;2023-09-12T10:02:48;2.70;;;2.28;;
11558;SDS011;5835;42.930;25.178;2023-09-12T10:05:18;1.30;;;1.20;;
11558;SDS011;5835;42.930;25.178;2023-09-12T10:07:47;2.88;;;1.30;;
11558;SDS011;5835;42.930;25.178;2023-09-12T10:10:16;1.40;;;1.30;;
11558;SDS011;5835;42.930;25.178;2023-09-12T10:12:48;2.30;;;1.80;;
11558;SDS011;5835;42.930;25.178;2023-09-12T10:15:17;2.17;;;1.98;;
11558;SDS011;5835;42.930;25.178;2023-09-12T10:17:51;1.10;;;1.10;;
11558;SDS011;5835;42.930;25.178;2023-09-12T10:20:24;1.52;;;1.42;;
11558;SDS011;5835;42.930;25.178;2023-09-12T10:22:56;1.17;;;1.17;;
11558;SDS011;5835;42.930;25.178;2023-09-12T10:25:32;2.17;;;1.15;;
11558;SDS011;5835;42.930;25.178;2023-09-12T10:28:02;1.65;;;1.55;;
11558;SDS011;5835;42.930;25.178;2023-09-12T10:30:31;1.48;;;1.38;;
11558;SDS011;5835;42.930;25.178;2023-09-12T10:32:59;1.65;;;1.55;;
11558;SDS011;5835;42.930;25.178;2023-09-12T10:35:30;1.70;;;1.52;;
11558;SDS011;5835;42.930;25.178;2023-09-12T10:38:00;2.03;;;1.85;;
11558;SDS011;5835;42.930;25.178;2023-09-12T10:40:29;2.10;;;1.45;;
11558;SDS011;5835;42.930;25.178;2023-09-12T10:42:57;2.13;;;1.30;;
11558;SDS011;5835;42.930;25.178;2023-09-12T10:45:28;3.15;;;1.65;;
11558;SDS011;5835;42.930;25.178;2023-09-12T10:47:56;1.35;;;1.25;;
11558;SDS011;5835;42.930;25.178;2023-09-12T10:50:23;1.80;;;1.65;;
11558;SDS011;5835;42.930;25.178;2023-09-12T10:52:52;1.17;;;1.08;;
11558;SDS011;5835;42.930;25.178;2023-09-12T10:55:19;1.85;;;1.27;;
11558;SDS011;5835;42.930;25.178;2023-09-12T11:00:31;2.58;;;1.35;;
11558;SDS011;5835;42.930;25.178;2023-09-12T11:02:58;2.15;;;2.03;;
11558;SDS011;5835;42.930;25.178;2023-09-12T11:05:36;1.30;;;1.20;;
11558;SDS011;5835;42.930;25.178;2023-09-12T11:08:05;2.05;;;1.92;;
11558;SDS011;5835;42.930;25.178;2023-09-12T11:10:32;7.88;;;1.40;;
11558;SDS011;5835;42.930;25.178;2023-09-12T11:12:59;1.92;;;1.35;;
11558;SDS011;5835;42.930;25.178;2023-09-12T11:15:27;1.60;;;1.50;;
11558;SDS011;5835;42.930;25.178;2023-09-12T11:18:00;2.05;;;1.85;;
11558;SDS011;5835;42.930;25.178;2023-09-12T11:23:20;1.67;;;1.42;;
11558;SDS011;5835;42.930;25.178;2023-09-12T11:25:47;1.33;;;1.23;;
11558;SDS011;5835;42.930;25.178;2023-09-12T11:28:14;2.13;;;1.90;;
11558;SDS011;5835;42.930;25.178;2023-09-12T11:30:57;2.00;;;1.58;;
11558;SDS011;5835;42.930;25.178;2023-09-12T11:33:24;1.25;;;1.15;;
11558;SDS011;5835;42.930;25.178;2023-09-12T11:35:52;1.30;;;1.20;;
11558;SDS011;5835;42.930;25.178;2023-09-12T11:38:27;2.30;;;1.30;;
11558;SDS011;5835;42.930;25.178;2023-09-12T11:40:55;0.68;;;0.68;;
11558;SDS011;5835;42.930;25.178;2023-09-12T11:43:22;3.20;;;2.15;;
11558;SDS011;5835;42.930;25.178;2023-09-12T11:45:51;1.30;;;1.30;;
11558;SDS011;5835;42.930;25.178;2023-09-12T11:48:18;1.92;;;1.30;;
11558;SDS011;5835;42.930;25.178;2023-09-12T11:50:49;1.48;;;1.38;;
11558;SDS011;5835;42.930;25.178;2023-09-12T11:53:19;1.40;;;1.30;;
11558;SDS011;5835;42.930;25.178;2023-09-12T11:55:50;4.25;;;1.45;;
11558;SDS011;5835;42.930;25.178;2023-09-12T11:58:19;1.50;;;1.40;;
11558;SDS011;5835;42.930;25.178;2023-09-12T12:00:47;1.45;;;1.35;;
11558;SDS011;5835;42.930;25.178;2023-09-12T12:03:16;1.15;;;1.05;;
11558;SDS011;5835;42.930;25.178;2023-09-12T12:05:44;2.63;;;1.58;;
11558;SDS011;5835;42.930;25.178;2023-09-12T12:08:12;1.25;;;1.15;;
11558;SDS011;5835;42.930;25.178;2023-09-12T12:10:40;4.40;;;1.60;;
11558;SDS011;5835;42.930;25.178;2023-09-12T12:13:15;2.67;;;1.70;;
11558;SDS011;5835;42.930;25.178;2023-09-12T12:15:42;1.35;;;1.27;;
11558;SDS011;5835;42.930;25.178;2023-09-12T12:18:09;1.60;;;1.50;;
11558;SDS011;5835;42.930;25.178;2023-09-12T12:20:36;4.10;;;1.30;;
11558;SDS011;5835;42.930;25.178;2023-09-12T12:23:04;2.97;;;2.13;;
11558;SDS011;5835;42.930;25.178;2023-09-12T12:25:31;1.27;;;0.95;;
11558;SDS011;5835;42.930;25.178;2023-09-12T12:27:59;2.03;;;1.48;;
11558;SDS011;5835;42.930;25.178;2023-09-12T12:30:30;1.48;;;1.38;;
11558;SDS011;5835;42.930;25.178;2023-09-12T12:33:00;1.70;;;1.52;;
11558;SDS011;5835;42.930;25.178;2023-09-12T12:35:28;1.55;;;1.45;;
11558;SDS011;5835;42.930;25.178;2023-09-12T12:37:56;1.70;;;1.42;;
11558;SDS011;5835;42.930;25.178;2023-09-12T12:40:23;1.10;;;1.10;;
11558;SDS011;5835;42.930;25.178;2023-09-12T12:42:50;1.17;;;1.15;;
11558;SDS011;5835;42.930;25.178;2023-09-12T12:45:20;2.90;;;2.05;;
11558;SDS011;5835;42.930;25.178;2023-09-12T12:47:51;2.50;;;1.13;;
11558;SDS011;5835;42.930;25.178;2023-09-12T12:50:25;1.95;;;1.52;;
11558;SDS011;5835;42.930;25.178;2023-09-12T12:52:52;2.38;;;2.15;;
11558;SDS011;5835;42.930;25.178;2023-09-12T12:55:19;4.15;;;2.35;;
11558;SDS011;5835;42.930;25.178;2023-09-12T12:57:52;3.65;;;1.65;;
11558;SDS011;5835;42.930;25.178;2023-09-12T13:00:19;1.33;;;1.23;;
11558;SDS011;5835;42.930;25.178;2023-09-12T13:02:46;1.63;;;1.40;;
11558;SDS011;5835;42.930;25.178;2023-09-12T13:05:21;1.85;;;1.75;;
11558;SDS011;5835;42.930;25.178;2023-09-12T13:07:50;2.10;;;1.48;;
11558;SDS011;5835;42.930;25.178;2023-09-12T13:10:18;1.58;;;1.48;;
11558;SDS011;5835;42.930;25.178;2023-09-12T13:12:46;1.77;;;1.67;;
11558;SDS011;5835;42.930;25.178;2023-09-12T13:15:13;1.35;;;1.00;;
11558;SDS011;5835;42.930;25.178;2023-09-12T13:17:41;1.35;;;1.25;;
11558;SDS011;5835;42.930;25.178;2023-09-12T13:20:09;0.80;;;0.80;;
11558;SDS011;5835;42.930;25.178;2023-09-12T13:22:37;0.90;;;0.85;;
11558;SDS011;5835;42.930;25.178;2023-09-12T13:25:05;1.48;;;1.20;;
11558;SDS011;5835;42.930;25.178;2023-09-12T13:27:33;1.98;;;1.40;;
11558;SDS011;5835;42.930;25.178;2023-09-12T13:30:00;4.50;;;1.40;;
11558;SDS011;5835;42.930;25.178;2023-09-12T13:32:29;1.50;;;1.38;;
11558;SDS011;5835;42.930;25.178;2023-09-12T13:34:56;1.77;;;1.67;;
11558;SDS011;5835;42.930;25.178;2023-09-12T13:37:23;2.40;;;1.40;;
11558;SDS011;5835;42.930;25.178;2023-09-12T13:39:54;1.75;;;1.15;;
11558;SDS011;5835;42.930;25.178;2023-09-12T13:42:21;1.27;;;1.17;;
11558;SDS011;5835;42.930;25.178;2023-09-12T13:44:48;1.05;;;1.05;;
11558;SDS011;5835;42.930;25.178;2023-09-12T13:47:14;1.75;;;1.65;;
11558;SDS011;5835;42.930;25.178;2023-09-12T13:49:46;1.35;;;1.27;;
11558;SDS011;5835;42.930;25.178;2023-09-12T13:52:13;2.30;;;1.35;;
11558;SDS011;5835;42.930;25.178;2023-09-12T13:54:41;1.60;;;1.33;;
11558;SDS011;5835;42.930;25.178;2023-09-12T13:57:09;1.63;;;1.52;;
11558;SDS011;5835;42.930;25.178;2023-09-12T13:59:38;1.58;;;1.48;;
11558;SDS011;5835;42.930;25.178;2023-09-12T14:02:05;1.17;;;1.10;;
11558;SDS011;5835;42.930;25.178;2023-09-12T14:04:32;0.85;;;0.85;;
11558;SDS011;5835;42.930;25.178;2023-09-12T14:06:59;1.40;;;1.08;;
11558;SDS011;5835;42.930;25.178;2023-09-12T14:09:26;1.10;;;1.00;;
11558;SDS011;5835;42.930;25.178;2023-09-12T14:11:55;1.05;;;0.95;;
11558;SDS011;5835;42.930;25.178;2023-09-12T14:14:23;1.52;;;1.35;;
11558;SDS011;5835;42.930;25.178;2023-09-12T14:16:50;1.38;;;1.27;;
11558;SDS011;5835;42.930;25.178;2023-09-12T14:19:16;1.15;;;1.08;;
11558;SDS011;5835;42.930;25.178;2023-09-12T14:21:43;1.60;;;1.50;;
11558;SDS011;5835;42.930;25.178;2023-09-12T14:24:11;4.47;;;1.55;;
11558;SDS011;5835;42.930;25.178;2023-09-12T14:26:38;2.53;;;1.67;;
11558;SDS011;5835;42.930;25.178;2023-09-12T14:29:06;1.20;;;1.08;;
11558;SDS011;5835;42.930;25.178;2023-09-12T14:31:34;3.05;;;1.60;;
11558;SDS011;5835;42.930;25.178;2023-09-12T14:34:02;1.00;;;1.00;;
11558;SDS011;5835;42.930;25.178;2023-09-12T14:36:32;1.58;;;0.82;;
11558;SDS011;5835;42.930;25.178;2023-09-12T14:38:59;2.13;;;1.25;;
11558;SDS011;5835;42.930;25.178;2023-09-12T14:41:27;1.55;;;1.50;;
11558;SDS011;5835;42.930;25.178;2023-09-12T14:43:55;1.50;;;1.40;;
11558;SDS011;5835;42.930;25.178;2023-09-12T14:46:22;2.53;;;2.33;;
11558;SDS011;5835;42.930;25.178;2023-09-12T14:48:49;1.13;;;1.13;;
11558;SDS011;5835;42.930;25.178;2023-09-12T14:51:16;1.00;;;1.00;;
11558;SDS011;5835;42.930;25.178;2023-09-12T14:53:44;1.50;;;1.40;;
11558;SDS011;5835;42.930;25.178;2023-09-12T14:56:13;3.40;;;1.92;;
11558;SDS011;5835;42.930;25.178;2023-09-12T14:58:40;4.93;;;1.85;;
11558;SDS011;5835;42.930;25.178;2023-09-12T15:01:07;1.35;;;1.25;;
11558;SDS011;5835;42.930;25.178;2023-09-12T15:03:34;1.77;;;1.63;;
11558;SDS011;5835;42.930;25.178;2023-09-12T15:06:05;0.98;;;0.98;;
11558;SDS011;5835;42.930;25.178;2023-09-12T15:08:33;1.45;;;1.35;;
11558;SDS011;5835;42.930;25.178;2023-09-12T15:11:01;2.85;;;1.52;;
11558;SDS011;5835;42.930;25.178;2023-09-12T15:13:29;0.90;;;0.90;;